Time;durP1;ratioP1;P1;durP2;ratioP2;P2;SDS_P1;SDS_P2;PMS_P1;PMS_P2;Temp;Humidity;BMP_temperature;BMP_pressure;BME280_temperature;BME280_humidity;BME280_pressure;Samples;Min_cycle;Max_cycle;Signal;HPM_P1;HPM_P2
2022/10/27 00:00:14;;;;;;;30.00;5.40;;;17.00;64.00;;;;;;5073695;28;20815;-88
2022/10/27 00:02:45;;;;;;;29.20;5.13;;;17.00;64.00;;;;;;5079759;28;20475;-89
2022/10/27 00:05:12;;;;;;;25.73;5.13;;;17.00;64.20;;;;;;5051700;28;20471;-88
2022/10/27 00:07:39;;;;;;;20.93;4.90;;;16.60;65.10;;;;;;5078702;28;20466;-87
2022/10/27 00:10:07;;;;;;;10.50;4.30;;;16.10;66.40;;;;;;5083443;28;21032;-90
2022/10/27 00:12:35;;;;;;;16.60;5.00;;;15.80;67.20;;;;;;5083297;28;20472;-89
2022/10/27 00:15:02;;;;;;;18.03;4.70;;;15.80;68.10;;;;;;5078599;28;20534;-87
2022/10/27 00:17:30;;;;;;;13.60;5.77;;;16.20;67.20;;;;;;5062224;28;20447;-90
2022/10/27 00:19:58;;;;;;;17.63;5.27;;;16.40;66.00;;;;;;5055316;28;20956;-89
2022/10/27 00:22:25;;;;;;;54.33;6.33;;;16.40;65.80;;;;;;5078297;28;20514;-88
2022/10/27 00:24:52;;;;;;;10.87;4.63;;;16.10;67.10;;;;;;5068632;28;20449;-89
2022/10/27 00:27:19;;;;;;;13.70;5.87;;;16.30;67.40;;;;;;5075613;28;20464;-88
2022/10/27 00:29:46;;;;;;;17.93;4.87;;;16.50;66.50;;;;;;5065219;28;20440;-90
2022/10/27 00:32:14;;;;;;;16.70;4.80;;;16.70;65.80;;;;;;5058440;28;20444;-89
2022/10/27 00:34:41;;;;;;;14.07;4.90;;;16.90;65.30;;;;;;5069959;28;20455;-89
2022/10/27 00:37:09;;;;;;;31.67;5.70;;;16.80;64.70;;;;;;5061347;28;20457;-88
2022/10/27 00:39:36;;;;;;;34.20;5.60;;;16.60;65.70;;;;;;5050112;28;20450;-89
2022/10/27 00:42:03;;;;;;;38.23;5.67;;;16.40;66.00;;;;;;5046964;28;20589;-89
2022/10/27 00:44:33;;;;;;;56.20;7.10;;;16.10;66.70;;;;;;5059219;28;21079;-89
2022/10/27 00:47:04;;;;;;;42.13;6.93;;;15.90;68.20;;;;;;5077497;28;20994;-88
2022/10/27 00:49:35;;;;;;;54.23;7.33;;;16.10;67.70;;;;;;5051138;28;20527;-89
2022/10/27 00:52:06;;;;;;;38.87;6.20;;;16.30;67.40;;;;;;5076911;28;20539;-90
2022/10/27 00:54:38;;;;;;;11.63;5.37;;;16.50;67.10;;;;;;5075535;28;20433;-90
2022/10/27 00:57:07;;;;;;;11.63;5.47;;;16.60;66.40;;;;;;5077841;28;20501;-90
2022/10/27 00:59:35;;;;;;;12.23;5.67;;;16.80;65.80;;;;;;5060769;28;20448;-89
2022/10/27 01:02:02;;;;;;;17.03;5.17;;;16.90;65.20;;;;;;5079901;28;21391;-88
2022/10/27 01:04:35;;;;;;;17.93;5.00;;;17.00;65.00;;;;;;5051746;28;20456;-89
2022/10/27 01:07:02;;;;;;;14.30;4.67;;;17.00;64.90;;;;;;5066071;28;20460;-89
2022/10/27 01:09:31;;;;;;;10.30;5.10;;;17.00;64.60;;;;;;5051523;28;20523;-88
2022/10/27 01:11:59;;;;;;;21.80;5.67;;;17.10;64.60;;;;;;5078443;28;20486;-90
2022/10/27 01:14:27;;;;;;;28.90;5.13;;;17.10;64.10;;;;;;5073898;28;20831;-88
2022/10/27 01:17:05;;;;;;;20.30;6.13;;;17.10;64.30;;;;;;5080315;28;20830;-89
2022/10/27 01:20:01;;;;;;;12.13;4.87;;;16.90;65.10;;;;;;5077753;28;20945;-88
2022/10/27 01:22:35;;;;;;;14.40;5.13;;;17.00;65.40;;;;;;5050208;28;20468;-89
2022/10/27 01:25:29;;;;;;;23.33;5.17;;;17.00;65.30;;;;;;5078030;28;20454;-90
2022/10/27 01:28:34;;;;;;;16.43;3.77;;;17.00;64.70;;;;;;5060149;28;20437;-89
2022/10/27 01:31:08;;;;;;;11.20;3.70;;;17.00;63.90;;;;;;5067906;28;20454;-89
2022/10/27 01:33:42;;;;;;;13.93;4.27;;;17.00;64.20;;;;;;5067369;28;20442;-88
2022/10/27 01:36:19;;;;;;;11.50;4.37;;;17.00;64.50;;;;;;5078301;28;20472;-88
2022/10/27 01:38:51;;;;;;;11.50;3.53;;;17.00;64.10;;;;;;5078927;28;20454;-88
2022/10/27 01:41:24;;;;;;;10.20;4.50;;;17.10;63.90;;;;;;5061634;28;21066;-88
2022/10/27 01:43:55;;;;;;;23.70;4.97;;;16.50;64.00;;;;;;5045548;28;20484;-89
2022/10/27 01:46:24;;;;;;;11.20;4.03;;;16.20;65.70;;;;;;5074767;28;20461;-89
2022/10/27 01:48:51;;;;;;;11.77;4.07;;;16.00;66.40;;;;;;5077476;28;20558;-89
2022/10/27 01:51:18;;;;;;;15.73;4.50;;;16.20;66.20;;;;;;5078113;28;20806;-89
2022/10/27 01:53:47;;;;;;;29.77;4.87;;;16.40;65.30;;;;;;5049762;28;20479;-90
2022/10/27 01:56:35;;;;;;;13.80;4.20;;;16.20;65.80;;;;;;5065680;28;20961;-90
2022/10/27 01:59:16;;;;;;;20.60;6.53;;;16.30;66.30;;;;;;5073978;28;20472;-89
2022/10/27 02:01:51;;;;;;;25.03;5.40;;;16.50;66.00;;;;;;5075887;28;20447;-88
2022/10/27 02:04:25;;;;;;;72.93;6.67;;;16.60;65.30;;;;;;5075257;28;20470;-88
2022/10/27 02:06:57;;;;;;;48.97;7.10;;;16.60;65.30;;;;;;5059872;28;20482;-89
2022/10/27 02:09:34;;;;;;;89.33;9.17;;;16.50;65.90;;;;;;5084332;28;20793;-89
2022/10/27 02:12:06;;;;;;;30.03;5.90;;;16.30;66.60;;;;;;5081347;28;21256;-89
2022/10/27 02:14:35;;;;;;;46.57;6.03;;;16.10;67.10;;;;;;5075060;28;21004;-89
2022/10/27 02:17:06;;;;;;;76.80;7.10;;;16.20;67.10;;;;;;5074301;28;20899;-88
2022/10/27 02:19:36;;;;;;;12.13;4.40;;;16.40;66.60;;;;;;5077827;28;20947;-89
2022/10/27 02:22:04;;;;;;;26.87;5.63;;;16.50;66.40;;;;;;5072649;28;20432;-90
2022/10/27 02:24:32;;;;;;;32.47;5.70;;;16.60;65.90;;;;;;5072006;28;20468;-90
2022/10/27 02:27:02;;;;;;;17.90;5.57;;;16.70;65.70;;;;;;5077734;28;21070;-88
2022/10/27 02:29:33;;;;;;;20.17;5.10;;;16.50;66.00;;;;;;5047395;28;20871;-89
2022/10/27 02:32:05;;;;;;;24.87;5.47;;;16.30;66.80;;;;;;5049581;28;20535;-90
2022/10/27 02:34:33;;;;;;;15.63;4.00;;;16.40;66.50;;;;;;5076607;28;20451;-90
2022/10/27 02:37:00;;;;;;;62.00;7.77;;;16.60;66.90;;;;;;5059297;28;20467;-88
2022/10/27 02:39:27;;;;;;;46.07;5.83;;;16.60;66.10;;;;;;5076556;28;20448;-89
2022/10/27 02:41:54;;;;;;;12.63;4.60;;;16.60;66.10;;;;;;5074065;28;20436;-88
2022/10/27 02:44:21;;;;;;;48.20;6.40;;;16.60;66.00;;;;;;5043336;28;20471;-89
2022/10/27 02:46:48;;;;;;;15.07;5.10;;;16.60;65.70;;;;;;5059496;28;20487;-89
2022/10/27 02:49:16;;;;;;;45.03;6.03;;;16.70;65.50;;;;;;5091108;27;20489;-89
2022/10/27 02:51:43;;;;;;;103.40;8.90;;;16.60;65.30;;;;;;5077941;28;20455;-89
2022/10/27 02:54:10;;;;;;;26.93;4.63;;;16.60;65.30;;;;;;5059658;28;20455;-89
2022/10/27 02:56:37;;;;;;;53.83;7.10;;;16.60;65.30;;;;;;5074054;28;20476;-89
2022/10/27 02:59:04;;;;;;;42.07;6.23;;;16.60;65.30;;;;;;5070374;28;20452;-88
2022/10/27 03:01:31;;;;;;;43.27;6.83;;;16.40;65.60;;;;;;5059851;28;20452;-88
2022/10/27 03:03:58;;;;;;;33.37;5.10;;;16.40;65.90;;;;;;5049402;28;20475;-89
2022/10/27 03:06:26;;;;;;;105.67;11.03;;;16.50;65.80;;;;;;5072621;28;20464;-89
2022/10/27 03:08:53;;;;;;;88.10;9.17;;;16.60;65.60;;;;;;5071254;28;20456;-88
2022/10/27 03:11:20;;;;;;;91.70;8.33;;;16.40;65.50;;;;;;5077125;28;20671;-89
2022/10/27 03:13:47;;;;;;;52.20;6.50;;;16.30;65.70;;;;;;5066330;28;20439;-89
2022/10/27 03:16:14;;;;;;;27.47;5.40;;;16.20;66.60;;;;;;5074682;28;20504;-88
2022/10/27 03:18:41;;;;;;;56.13;6.77;;;16.20;65.90;;;;;;5077953;28;20542;-89
2022/10/27 03:21:08;;;;;;;37.10;6.13;;;16.40;65.80;;;;;;5077200;28;20444;-89
2022/10/27 03:23:36;;;;;;;40.87;6.47;;;16.40;65.70;;;;;;5083618;28;20467;-89
2022/10/27 03:26:03;;;;;;;123.10;10.33;;;16.20;65.60;;;;;;5074505;28;20470;-90
2022/10/27 03:28:34;;;;;;;67.27;7.60;;;16.20;66.00;;;;;;5061197;28;20451;-91
2022/10/27 03:31:01;;;;;;;18.70;5.50;;;16.30;65.70;;;;;;5052539;28;20447;-87
2022/10/27 03:33:28;;;;;;;25.60;5.37;;;16.30;65.10;;;;;;5078501;28;20462;-88
2022/10/27 03:35:55;;;;;;;25.20;5.13;;;16.30;65.50;;;;;;5082410;28;20950;-88
2022/10/27 03:38:22;;;;;;;28.83;5.80;;;16.30;65.50;;;;;;5098922;28;20435;-89
2022/10/27 03:40:50;;;;;;;32.53;6.00;;;16.30;65.10;;;;;;5086078;27;20538;-89
2022/10/27 03:43:17;;;;;;;13.27;5.27;;;16.20;65.60;;;;;;5080113;28;20464;-89
2022/10/27 03:45:47;;;;;;;18.37;5.17;;;16.10;65.80;;;;;;5081714;27;22146;-90
2022/10/27 03:48:14;;;;;;;10.27;5.20;;;16.20;65.70;;;;;;5099417;27;20463;-90
2022/10/27 03:50:46;;;;;;;15.20;4.43;;;16.20;65.70;;;;;;5098385;27;20504;-90
2022/10/27 03:53:13;;;;;;;22.83;3.87;;;16.10;65.40;;;;;;5081808;27;20448;-90
2022/10/27 03:55:40;;;;;;;12.63;4.80;;;15.90;65.40;;;;;;5081652;27;20462;-90
2022/10/27 03:58:11;;;;;;;10.40;4.30;;;16.00;65.30;;;;;;5047902;28;20470;-90
2022/10/27 04:00:38;;;;;;;11.10;4.60;;;15.70;65.90;;;;;;5081606;27;20454;-89
2022/10/27 04:03:05;;;;;;;16.43;10.23;;;15.80;66.10;;;;;;5069980;27;20460;-89
2022/10/27 04:05:32;;;;;;;28.77;6.00;;;15.80;66.00;;;;;;5082146;27;20834;-90
2022/10/27 04:08:00;;;;;;;7.30;6.60;;;15.70;66.10;;;;;;5098411;27;20951;-90
2022/10/27 04:10:27;;;;;;;4.93;4.43;;;15.60;66.70;;;;;;5079294;28;20451;-90
2022/10/27 04:12:56;;;;;;;4.53;4.10;;;15.60;65.60;;;;;;5084151;28;20455;-88
2022/10/27 04:15:26;;;;;;;9.03;6.03;;;15.60;65.60;;;;;;5083607;28;20788;-89
2022/10/27 04:17:53;;;;;;;7.47;4.70;;;15.80;65.40;;;;;;5078416;28;20444;-90
2022/10/27 04:20:20;;;;;;;7.73;4.17;;;15.80;64.60;;;;;;5064449;28;20465;-89
2022/10/27 04:22:48;;;;;;;6.90;6.17;;;15.90;64.60;;;;;;5098410;27;20581;-90
2022/10/27 04:25:15;;;;;;;12.30;8.10;;;15.90;64.40;;;;;;5045896;28;20574;-90
2022/10/27 04:27:42;;;;;;;6.17;4.87;;;15.90;64.30;;;;;;5080652;28;20459;-90
2022/10/27 04:30:10;;;;;;;10.67;4.30;;;15.80;64.20;;;;;;5086310;28;20834;-89
2022/10/27 04:32:38;;;;;;;6.50;3.57;;;15.90;64.40;;;;;;5065469;27;20465;-90
2022/10/27 04:35:05;;;;;;;12.93;4.63;;;16.00;64.00;;;;;;5081788;27;20482;-89
2022/10/27 04:37:33;;;;;;;4.60;4.20;;;15.80;64.40;;;;;;5080994;28;20871;-90
2022/10/27 04:40:00;;;;;;;4.13;3.23;;;15.90;64.50;;;;;;5076975;28;20451;-89
2022/10/27 04:42:27;;;;;;;4.87;3.73;;;15.90;64.30;;;;;;5086631;28;20447;-89
2022/10/27 04:44:54;;;;;;;4.27;2.90;;;15.90;64.50;;;;;;5081531;28;20475;-89
2022/10/27 04:47:21;;;;;;;3.30;3.00;;;15.90;64.70;;;;;;5088230;28;20853;-90
2022/10/27 04:49:49;;;;;;;14.40;4.63;;;15.90;65.20;;;;;;5076152;28;20860;-90
2022/10/27 04:52:17;;;;;;;12.63;4.10;;;15.50;64.90;;;;;;5077784;27;20975;-89
2022/10/27 04:54:44;;;;;;;5.03;4.13;;;15.40;65.80;;;;;;5074876;28;20451;-89
2022/10/27 04:57:11;;;;;;;17.73;5.03;;;15.40;65.80;;;;;;5096406;27;20609;-88
2022/10/27 04:59:38;;;;;;;21.77;4.33;;;15.40;65.70;;;;;;5063493;27;20443;-89
2022/10/27 05:02:05;;;;;;;19.27;4.73;;;15.50;65.40;;;;;;5064562;27;20453;-90
2022/10/27 05:04:31;;;;;;;5.50;3.20;;;15.50;65.20;;;;;;5080550;28;21189;-88
2022/10/27 05:07:00;;;;;;;9.60;3.87;;;15.60;65.00;;;;;;5069889;27;21444;-90
2022/10/27 05:09:27;;;;;;;4.43;3.50;;;15.50;64.80;;;;;;5083033;27;21042;-90
2022/10/27 05:11:54;;;;;;;3.97;3.17;;;15.60;65.20;;;;;;5081871;28;20478;-89
2022/10/27 05:14:21;;;;;;;3.30;2.73;;;15.70;64.80;;;;;;5079503;28;20444;-89
2022/10/27 05:16:47;;;;;;;3.80;3.00;;;15.80;63.70;;;;;;5081977;28;20470;-90
2022/10/27 05:19:14;;;;;;;4.80;3.00;;;15.80;62.80;;;;;;5099279;27;20450;-89
2022/10/27 05:21:41;;;;;;;3.37;2.93;;;15.80;62.90;;;;;;5059720;28;20506;-90
2022/10/27 05:24:10;;;;;;;2.60;2.00;;;15.80;62.40;;;;;;5096860;27;20493;-90
2022/10/27 05:26:37;;;;;;;3.23;2.10;;;15.30;62.70;;;;;;5067264;28;20482;-91
2022/10/27 05:29:04;;;;;;;2.77;2.47;;;15.20;63.10;;;;;;5050301;28;20448;-90
2022/10/27 05:31:31;;;;;;;4.77;3.27;;;15.10;63.60;;;;;;5055297;28;20463;-89
2022/10/27 05:33:58;;;;;;;5.80;3.93;;;15.30;63.40;;;;;;5081631;27;20466;-89
2022/10/27 05:36:25;;;;;;;3.63;2.90;;;15.50;63.50;;;;;;5098241;28;20472;-89
2022/10/27 05:38:52;;;;;;;4.43;3.30;;;15.60;63.10;;;;;;5080911;28;20467;-90
2022/10/27 05:41:20;;;;;;;7.77;3.80;;;15.60;62.70;;;;;;5071285;27;20473;-89
2022/10/27 05:43:47;;;;;;;5.60;3.23;;;15.60;62.60;;;;;;5068349;28;20455;-89
2022/10/27 05:46:14;;;;;;;4.13;3.10;;;15.60;62.60;;;;;;5059549;28;20456;-90
2022/10/27 05:48:41;;;;;;;5.50;3.30;;;15.70;62.60;;;;;;5079515;28;20451;-89
2022/10/27 05:51:08;;;;;;;5.57;3.80;;;15.70;62.40;;;;;;5094528;27;20447;-89
2022/10/27 05:53:35;;;;;;;4.10;3.67;;;15.70;62.00;;;;;;5073620;27;20460;-90
2022/10/27 05:56:02;;;;;;;4.87;3.30;;;15.70;61.30;;;;;;5076823;28;20468;-89
2022/10/27 05:58:30;;;;;;;9.23;3.60;;;15.50;62.00;;;;;;5095505;27;20804;-90
2022/10/27 06:00:58;;;;;;;5.03;3.87;;;15.50;62.90;;;;;;5075524;28;20458;-91
2022/10/27 06:03:26;;;;;;;5.63;4.00;;;15.60;63.10;;;;;;5076475;28;20996;-89
2022/10/27 06:05:53;;;;;;;4.97;3.50;;;15.50;63.20;;;;;;5079005;28;20475;-90
2022/10/27 06:08:21;;;;;;;7.43;4.10;;;15.50;63.00;;;;;;5078780;28;20475;-90
2022/10/27 06:10:48;;;;;;;9.50;4.47;;;15.60;63.20;;;;;;5066340;28;21045;-90
2022/10/27 06:13:17;;;;;;;7.10;4.00;;;15.60;63.30;;;;;;5098704;27;20542;-89
2022/10/27 06:15:46;;;;;;;6.07;4.23;;;15.60;64.00;;;;;;5081565;28;20978;-91
2022/10/27 06:18:13;;;;;;;6.80;4.47;;;15.60;62.90;;;;;;5047369;28;20475;-91
2022/10/27 06:20:40;;;;;;;6.13;3.77;;;15.60;62.50;;;;;;5080167;28;20543;-91
2022/10/27 06:23:07;;;;;;;7.27;4.50;;;15.60;62.70;;;;;;5062032;27;20514;-90
2022/10/27 06:25:35;;;;;;;6.63;4.33;;;15.50;63.80;;;;;;5045984;28;20478;-90
2022/10/27 06:28:02;;;;;;;5.67;4.57;;;15.30;63.50;;;;;;5076060;28;20448;-88
2022/10/27 06:30:29;;;;;;;9.17;3.70;;;15.40;63.40;;;;;;5084145;28;20451;-89
2022/10/27 06:32:57;;;;;;;4.10;3.70;;;15.30;63.90;;;;;;5076640;28;20447;-90
2022/10/27 06:35:24;;;;;;;5.43;4.57;;;15.20;63.90;;;;;;5057165;27;20474;-91
2022/10/27 06:37:51;;;;;;;8.53;4.77;;;15.20;64.10;;;;;;5086100;27;20461;-90
2022/10/27 06:40:20;;;;;;;7.10;4.37;;;15.10;64.30;;;;;;5077853;28;20451;-91
2022/10/27 06:42:49;;;;;;;6.30;3.90;;;15.20;64.70;;;;;;5077182;28;20525;-90
2022/10/27 06:45:17;;;;;;;6.00;4.40;;;15.20;64.00;;;;;;5095557;27;20551;-90
2022/10/27 06:47:44;;;;;;;8.20;7.40;;;15.30;63.90;;;;;;5050720;28;20440;-91
2022/10/27 06:50:13;;;;;;;8.67;6.53;;;15.20;64.40;;;;;;5097460;27;20458;-90
2022/10/27 06:52:40;;;;;;;5.63;5.10;;;15.30;63.70;;;;;;5076081;28;20448;-90
2022/10/27 06:55:08;;;;;;;6.40;5.50;;;15.40;63.10;;;;;;5074705;28;20447;-90
2022/10/27 06:57:41;;;;;;;10.77;8.77;;;15.40;62.80;;;;;;5075657;28;21211;-91
2022/10/27 07:00:10;;;;;;;8.07;5.80;;;15.40;63.80;;;;;;5044380;28;20977;-90
2022/10/27 07:02:37;;;;;;;9.47;5.73;;;15.40;63.70;;;;;;5066144;28;21010;-90
2022/10/27 07:05:05;;;;;;;4.77;4.27;;;15.30;63.90;;;;;;5067531;28;20474;-90
2022/10/27 07:07:33;;;;;;;11.07;4.30;;;15.40;63.80;;;;;;5094510;28;20489;-90
2022/10/27 07:10:00;;;;;;;6.13;4.50;;;15.30;63.20;;;;;;5074249;28;20468;-90
2022/10/27 07:12:27;;;;;;;9.23;4.13;;;15.50;64.10;;;;;;5075107;28;20439;-91
2022/10/27 07:14:54;;;;;;;6.73;4.70;;;15.30;63.10;;;;;;5060352;28;20446;-90
2022/10/27 07:17:21;;;;;;;5.20;3.83;;;15.40;63.40;;;;;;5061508;28;20475;-89
2022/10/27 07:19:48;;;;;;;7.37;4.27;;;15.10;63.70;;;;;;5074968;28;20438;-91
2022/10/27 07:22:16;;;;;;;4.73;3.90;;;15.20;63.80;;;;;;5069408;28;20448;-91
2022/10/27 07:24:44;;;;;;;5.40;4.30;;;15.30;63.70;;;;;;5095902;28;20929;-90
2022/10/27 07:27:11;;;;;;;8.00;4.40;;;15.10;64.50;;;;;;5075797;28;21199;-90
2022/10/27 07:29:38;;;;;;;6.87;4.73;;;15.10;64.70;;;;;;5076955;28;20527;-91
2022/10/27 07:32:06;;;;;;;7.67;5.03;;;15.20;64.30;;;;;;5047703;28;20451;-90
2022/10/27 07:34:33;;;;;;;5.60;4.60;;;15.00;64.60;;;;;;5081225;28;20531;-90
2022/10/27 07:37:00;;;;;;;9.20;5.33;;;15.00;64.80;;;;;;5097205;28;20462;-90
2022/10/27 07:39:27;;;;;;;6.77;4.93;;;14.80;65.10;;;;;;5059450;28;20810;-90
2022/10/27 07:41:55;;;;;;;5.10;4.10;;;14.80;65.80;;;;;;5048747;28;20458;-89
2022/10/27 07:44:22;;;;;;;6.83;5.50;;;15.00;65.50;;;;;;5072958;28;20447;-89
2022/10/27 07:46:49;;;;;;;6.73;5.10;;;15.20;65.00;;;;;;5076854;28;20475;-90
2022/10/27 07:49:16;;;;;;;7.00;5.87;;;15.30;65.00;;;;;;5077186;28;20539;-89
2022/10/27 07:51:43;;;;;;;5.97;5.20;;;15.20;64.90;;;;;;5076117;28;20461;-89
2022/10/27 07:54:10;;;;;;;6.27;4.57;;;15.10;65.70;;;;;;5058005;28;20971;-91
2022/10/27 07:56:37;;;;;;;5.80;4.87;;;15.10;65.90;;;;;;5080600;28;20542;-90
2022/10/27 07:59:05;;;;;;;5.27;4.43;;;15.40;66.40;;;;;;5051349;28;20455;-90
2022/10/27 08:01:32;;;;;;;9.10;6.30;;;15.50;65.20;;;;;;5092689;28;20955;-90
2022/10/27 08:03:59;;;;;;;11.23;8.20;;;15.40;65.00;;;;;;5079565;28;20439;-91
2022/10/27 08:06:26;;;;;;;8.57;6.13;;;15.60;64.70;;;;;;5068129;28;20509;-92
2022/10/27 08:08:53;;;;;;;20.03;17.93;;;15.70;64.90;;;;;;5082053;28;20457;-90
2022/10/27 08:11:21;;;;;;;17.33;13.70;;;15.60;65.00;;;;;;5063549;28;20458;-91
2022/10/27 08:13:48;;;;;;;15.37;10.20;;;15.70;65.40;;;;;;5076702;28;20448;-90
2022/10/27 08:16:17;;;;;;;12.80;8.13;;;15.90;64.90;;;;;;5078157;28;21025;-90
2022/10/27 08:18:44;;;;;;;13.50;10.60;;;15.90;64.40;;;;;;5078768;28;20868;-90
2022/10/27 08:21:11;;;;;;;9.77;8.40;;;16.00;64.70;;;;;;5094685;28;20444;-89
2022/10/27 08:23:39;;;;;;;10.87;8.20;;;16.20;64.30;;;;;;5054092;28;20446;-91
2022/10/27 08:26:06;;;;;;;8.40;6.40;;;16.20;64.40;;;;;;5065464;28;20464;-91
2022/10/27 08:28:33;;;;;;;10.37;7.20;;;16.00;65.00;;;;;;5080144;27;20443;-91
2022/10/27 08:31:00;;;;;;;13.67;7.70;;;16.10;65.30;;;;;;5082578;28;20469;-90
2022/10/27 08:33:28;;;;;;;13.13;8.57;;;16.20;65.10;;;;;;5064720;28;20455;-91
2022/10/27 08:35:55;;;;;;;9.23;7.27;;;16.20;64.80;;;;;;5082359;27;20475;-91
2022/10/27 08:38:22;;;;;;;10.50;8.07;;;16.00;65.80;;;;;;5071486;27;20556;-91
2022/10/27 08:41:03;;;;;;;9.80;6.70;;;16.00;66.00;;;;;;5053003;28;20435;-90
2022/10/27 08:43:58;;;;;;;12.20;8.27;;;16.10;65.50;;;;;;5078200;28;20459;-91
2022/10/27 08:46:31;;;;;;;23.90;16.97;;;16.00;66.10;;;;;;5089077;28;20848;-90
2022/10/27 08:49:04;;;;;;;16.60;11.63;;;16.20;65.90;;;;;;5090530;28;20447;-90
2022/10/27 08:51:35;;;;;;;22.10;15.17;;;16.40;65.70;;;;;;5077026;28;20450;-90
2022/10/27 08:54:04;;;;;;;12.77;7.60;;;16.40;65.10;;;;;;5065601;28;20441;-91
2022/10/27 08:56:38;;;;;;;9.50;5.37;;;16.20;65.80;;;;;;5072192;28;20480;-91
2022/10/27 08:59:10;;;;;;;8.80;7.60;;;16.10;65.80;;;;;;5083582;28;20435;-91
2022/10/27 09:01:42;;;;;;;10.90;9.47;;;16.20;66.00;;;;;;5070255;28;20501;-91
2022/10/27 09:04:29;;;;;;;9.67;6.03;;;16.30;66.00;;;;;;5086387;28;20444;-91
2022/10/27 09:07:05;;;;;;;8.93;5.90;;;16.30;66.00;;;;;;5064484;28;20477;-91
2022/10/27 09:09:40;;;;;;;13.30;9.97;;;16.50;66.00;;;;;;5069875;28;20565;-90
2022/10/27 09:12:17;;;;;;;13.70;11.50;;;16.50;65.50;;;;;;5079770;27;20473;-91
2022/10/27 09:15:10;;;;;;;10.60;7.20;;;16.50;66.00;;;;;;5078491;28;20454;-90
2022/10/27 09:17:41;;;;;;;12.87;6.97;;;16.60;66.10;;;;;;5070522;27;20819;-91
2022/10/27 09:20:20;;;;;;;12.97;9.90;;;16.60;66.00;;;;;;5064808;28;21153;-90
2022/10/27 09:22:50;;;;;;;10.17;7.00;;;16.50;66.80;;;;;;5084637;28;20980;-90
2022/10/27 09:25:19;;;;;;;12.03;7.40;;;16.70;66.30;;;;;;5061525;27;20493;-91
2022/10/27 09:27:50;;;;;;;8.97;7.40;;;16.80;65.80;;;;;;5067233;27;20460;-91
2022/10/27 09:30:17;;;;;;;12.03;8.43;;;17.00;65.50;;;;;;5071763;28;20451;-91
2022/10/27 09:32:48;;;;;;;11.83;8.40;;;17.10;65.60;;;;;;5050573;28;20542;-90
2022/10/27 09:35:21;;;;;;;9.37;7.80;;;17.10;65.10;;;;;;5096484;27;20449;-90
2022/10/27 09:37:48;;;;;;;9.00;7.27;;;16.80;66.20;;;;;;5070252;27;20519;-90
2022/10/27 09:40:18;;;;;;;16.87;8.53;;;16.70;67.40;;;;;;5075889;27;20484;-90
2022/10/27 09:42:46;;;;;;;12.70;9.03;;;16.90;66.90;;;;;;5058034;27;20839;-91
2022/10/27 09:45:15;;;;;;;13.63;8.40;;;16.90;66.80;;;;;;5082885;28;20567;-90
2022/10/27 09:47:45;;;;;;;10.97;7.83;;;17.00;66.80;;;;;;5074989;28;20537;-91
2022/10/27 09:50:20;;;;;;;11.83;8.33;;;16.90;66.80;;;;;;5079719;28;20489;-91
2022/10/27 09:52:48;;;;;;;16.93;8.47;;;17.00;67.20;;;;;;5043427;28;20460;-91
2022/10/27 09:55:16;;;;;;;17.33;8.00;;;17.00;67.40;;;;;;5090376;28;20447;-91
2022/10/27 09:57:46;;;;;;;12.80;8.13;;;16.90;67.20;;;;;;5075306;28;20451;-90
2022/10/27 10:00:25;;;;;;;11.73;8.50;;;17.00;67.20;;;;;;5083192;28;20448;-90
2022/10/27 10:03:02;;;;;;;12.40;7.60;;;17.20;66.90;;;;;;5055112;28;20450;-91
2022/10/27 10:05:32;;;;;;;14.23;7.80;;;17.20;66.40;;;;;;5068886;27;20488;-90
2022/10/27 10:08:13;;;;;;;12.10;8.27;;;17.30;66.50;;;;;;5051129;28;21281;-91
2022/10/27 10:10:52;;;;;;;12.50;8.50;;;17.40;66.70;;;;;;5077466;28;20451;-89
2022/10/27 10:13:21;;;;;;;12.87;7.90;;;17.40;66.20;;;;;;5071084;28;20575;-90
2022/10/27 10:15:48;;;;;;;14.60;9.53;;;17.40;66.20;;;;;;5061554;27;20477;-91
2022/10/27 10:18:26;;;;;;;14.20;8.50;;;17.30;66.60;;;;;;5088076;27;20475;-92
2022/10/27 10:20:59;;;;;;;10.73;7.80;;;17.50;66.30;;;;;;5056562;28;20543;-90
2022/10/27 10:23:27;;;;;;;14.97;9.00;;;17.50;67.30;;;;;;5095016;27;20472;-89
2022/10/27 10:25:57;;;;;;;16.30;9.07;;;17.60;66.00;;;;;;5076266;28;20474;-90
2022/10/27 10:28:32;;;;;;;23.00;12.77;;;17.50;66.10;;;;;;5093284;27;21035;-89
2022/10/27 10:31:00;;;;;;;24.30;14.60;;;17.40;66.70;;;;;;5063946;28;20458;-90
2022/10/27 10:33:32;;;;;;;16.60;10.87;;;17.60;66.50;;;;;;5082981;27;20457;-88
2022/10/27 10:36:02;;;;;;;14.40;10.47;;;17.90;66.00;;;;;;5067959;28;20446;-90
2022/10/27 10:38:33;;;;;;;13.90;9.57;;;17.70;66.20;;;;;;5076499;28;20436;-90
2022/10/27 10:41:11;;;;;;;14.13;9.87;;;17.70;66.60;;;;;;5097517;27;20440;-90
2022/10/27 10:43:39;;;;;;;13.90;9.50;;;17.70;66.40;;;;;;5044565;28;21011;-90
2022/10/27 10:46:11;;;;;;;13.33;8.93;;;17.90;66.20;;;;;;5097322;28;20483;-91
2022/10/27 10:48:45;;;;;;;15.80;9.33;;;17.90;66.10;;;;;;5067672;28;20447;-90
2022/10/27 10:51:24;;;;;;;12.70;8.47;;;18.10;65.90;;;;;;5077570;28;20450;-91
2022/10/27 10:53:56;;;;;;;11.23;8.50;;;18.10;65.40;;;;;;5061755;28;20534;-91
2022/10/27 10:56:26;;;;;;;9.43;7.90;;;18.20;65.30;;;;;;5065473;27;20453;-91
2022/10/27 10:59:03;;;;;;;12.90;8.70;;;18.30;65.30;;;;;;5074625;28;20442;-90
2022/10/27 11:01:43;;;;;;;9.90;8.20;;;18.40;65.10;;;;;;5046893;27;20529;-90
2022/10/27 11:04:12;;;;;;;13.73;9.77;;;18.30;65.40;;;;;;5078761;28;20431;-91
2022/10/27 11:06:54;;;;;;;13.93;8.97;;;18.50;65.40;;;;;;5094166;27;20480;-91
2022/10/27 11:09:21;;;;;;;13.67;10.23;;;18.30;65.30;;;;;;5060704;28;20452;-91
2022/10/27 11:11:50;;;;;;;15.00;8.83;;;18.40;65.90;;;;;;5095284;28;20473;-90
2022/10/27 11:14:18;;;;;;;10.83;8.10;;;18.60;65.70;;;;;;5074526;28;21211;-91
2022/10/27 11:16:55;;;;;;;10.07;8.57;;;18.80;64.70;;;;;;5055067;28;20536;-91
2022/10/27 11:19:26;;;;;;;19.60;17.50;;;18.70;64.40;;;;;;5076177;28;20622;-91
2022/10/27 11:21:59;;;;;;;16.00;12.80;;;18.40;66.10;;;;;;5076740;28;20531;-90
2022/10/27 11:24:30;;;;;;;10.30;7.97;;;18.40;66.40;;;;;;5061803;28;20924;-91
2022/10/27 11:27:01;;;;;;;11.07;8.70;;;18.50;66.60;;;;;;5074541;28;20520;-91
2022/10/27 11:29:41;;;;;;;11.83;8.60;;;18.70;66.40;;;;;;5075009;28;20444;-89
2022/10/27 11:32:14;;;;;;;13.50;9.40;;;18.80;66.30;;;;;;5084415;28;20447;-90
2022/10/27 11:34:50;;;;;;;14.23;10.43;;;19.10;65.40;;;;;;5078897;28;20439;-92
2022/10/27 11:37:23;;;;;;;23.07;20.70;;;19.20;64.60;;;;;;5079646;28;20883;-90
2022/10/27 11:39:56;;;;;;;17.73;9.97;;;19.20;64.70;;;;;;5078963;28;20447;-90
2022/10/27 11:42:32;;;;;;;18.20;10.40;;;19.20;64.90;;;;;;5059833;28;20451;-90
2022/10/27 11:45:08;;;;;;;15.37;11.07;;;19.30;64.90;;;;;;5061137;28;20451;-90
2022/10/27 11:47:43;;;;;;;15.93;11.30;;;19.40;64.90;;;;;;5062146;28;20460;-90
2022/10/27 11:50:13;;;;;;;14.57;12.40;;;19.50;64.50;;;;;;5076627;28;20450;-90
2022/10/27 11:52:44;;;;;;;17.90;11.30;;;19.60;64.60;;;;;;5065887;28;20448;-89
2022/10/27 11:55:15;;;;;;;16.07;11.30;;;19.80;64.30;;;;;;5068332;28;20842;-90
2022/10/27 11:57:51;;;;;;;19.53;11.30;;;19.70;64.00;;;;;;5082917;28;20627;-91
2022/10/27 12:00:21;;;;;;;21.13;10.93;;;19.90;64.10;;;;;;5063498;28;20435;-90
2022/10/27 12:03:31;;;;;;;12.63;9.60;;;20.20;62.90;;;;;;5056205;27;20446;-91
2022/10/27 12:06:01;;;;;;;13.27;9.67;;;20.10;62.70;;;;;;5095481;27;21025;-90
2022/10/27 12:08:36;;;;;;;11.10;9.60;;;20.50;62.90;;;;;;5095576;27;20462;-91
2022/10/27 12:11:17;;;;;;;15.03;11.07;;;20.80;61.90;;;;;;5053574;28;20542;-90
2022/10/27 12:13:53;;;;;;;12.77;9.23;;;21.10;61.80;;;;;;5064450;28;20465;-90
2022/10/27 12:16:25;;;;;;;13.53;10.10;;;21.20;60.20;;;;;;5080318;28;20963;-91
2022/10/27 12:19:01;;;;;;;11.40;9.23;;;21.40;60.20;;;;;;5082470;27;20955;-90
2022/10/27 12:21:34;;;;;;;14.37;10.07;;;21.40;59.60;;;;;;5079563;27;20482;-90
2022/10/27 12:24:06;;;;;;;13.50;9.97;;;21.60;60.40;;;;;;5097736;27;20446;-90
2022/10/27 12:26:37;;;;;;;11.40;9.33;;;21.70;59.30;;;;;;5074305;28;21252;-90
2022/10/27 12:29:06;;;;;;;18.73;9.73;;;21.70;60.10;;;;;;5082705;27;20447;-91
2022/10/27 12:31:40;;;;;;;12.47;9.50;;;21.80;59.40;;;;;;5086762;28;20881;-90
2022/10/27 12:34:09;;;;;;;11.83;9.80;;;21.90;59.30;;;;;;5046760;28;20509;-91
2022/10/27 12:36:45;;;;;;;11.00;9.07;;;22.10;59.60;;;;;;5045846;28;20470;-91
2022/10/27 12:39:23;;;;;;;11.17;8.67;;;22.20;58.80;;;;;;5080446;27;20971;-92
2022/10/27 12:41:56;;;;;;;12.70;8.77;;;22.10;58.90;;;;;;5081804;28;21011;-91
2022/10/27 12:44:35;;;;;;;9.27;7.53;;;22.40;59.00;;;;;;5095139;27;20474;-91
2022/10/27 12:47:33;;;;;;;7.70;6.87;;;22.50;58.30;;;;;;5081020;27;20481;-90
2022/10/27 12:50:17;;;;;;;11.60;7.60;;;22.70;58.40;;;;;;5070813;27;20478;-91
2022/10/27 12:52:53;;;;;;;9.50;7.50;;;22.70;58.00;;;;;;5068331;27;23246;-91